Time;durP1;ratioP1;P1;durP2;ratioP2;P2;SDS_P1;SDS_P2;PMS_P1;PMS_P2;Temp;Humidity;BMP_temperature;BMP_pressure;BME280_temperature;BME280_humidity;BME280_pressure;Samples;Min_cycle;Max_cycle;Signal;HPM_P1;HPM_P2
2022/09/02 00:01:57;;;;;;;4.07;1.67;;;22.40;39.80;;;;;;5055663;28;20457;-70
2022/09/02 00:04:26;;;;;;;2.00;1.43;;;22.40;40.20;;;;;;5055456;28;20460;-70
2022/09/02 00:06:54;;;;;;;3.17;1.50;;;22.40;40.40;;;;;;5055609;28;20446;-70
2022/09/02 00:09:23;;;;;;;1.80;1.70;;;22.30;40.40;;;;;;5055318;28;20485;-70
2022/09/02 00:11:51;;;;;;;2.70;1.63;;;22.30;40.60;;;;;;5055309;28;20851;-69
2022/09/02 00:14:21;;;;;;;3.07;1.40;;;22.30;40.70;;;;;;5057635;28;20444;-69
2022/09/02 00:16:51;;;;;;;2.47;1.47;;;22.30;41.00;;;;;;5056334;28;20446;-69
2022/09/02 00:19:19;;;;;;;2.23;1.60;;;22.20;41.10;;;;;;5057218;28;20434;-70
2022/09/02 00:21:46;;;;;;;2.30;1.60;;;22.20;41.30;;;;;;5055531;28;20868;-69
2022/09/02 00:24:13;;;;;;;1.93;1.50;;;22.10;41.70;;;;;;5054985;28;20450;-69
2022/09/02 00:26:40;;;;;;;1.60;1.50;;;22.10;41.70;;;;;;5055899;28;20533;-70
2022/09/02 00:29:08;;;;;;;1.40;1.30;;;22.10;41.70;;;;;;5054902;28;20481;-70
2022/09/02 00:31:36;;;;;;;3.00;1.80;;;22.10;42.00;;;;;;5054618;28;20446;-69
2022/09/02 00:34:04;;;;;;;1.70;1.60;;;22.10;42.00;;;;;;5054664;28;20474;-70
2022/09/02 00:36:32;;;;;;;2.20;1.80;;;22.10;41.70;;;;;;5055337;28;20507;-70
2022/09/02 00:38:58;;;;;;;2.00;1.60;;;22.00;41.50;;;;;;5055011;28;20422;-70
2022/09/02 00:41:28;;;;;;;2.73;1.67;;;22.00;41.40;;;;;;5054582;28;20957;-69
2022/09/02 00:43:58;;;;;;;2.57;1.43;;;22.00;41.50;;;;;;5054681;28;20470;-69
2022/09/02 00:46:27;;;;;;;2.20;1.63;;;22.00;41.60;;;;;;5055145;28;20814;-69
2022/09/02 00:49:00;;;;;;;1.87;1.63;;;22.00;41.60;;;;;;5054703;28;20486;-69
2022/09/02 00:51:32;;;;;;;1.97;1.87;;;22.00;41.90;;;;;;5054602;28;20434;-70
2022/09/02 00:53:59;;;;;;;3.50;2.07;;;21.90;42.20;;;;;;5054596;28;20476;-69
2022/09/02 00:56:29;;;;;;;2.13;1.40;;;21.90;42.10;;;;;;5054463;28;20457;-69
2022/09/02 00:58:57;;;;;;;1.80;1.60;;;21.90;42.20;;;;;;5053903;28;21038;-69
2022/09/02 01:01:25;;;;;;;1.30;1.20;;;21.90;42.00;;;;;;5053913;28;20822;-69
2022/09/02 01:03:53;;;;;;;1.30;1.20;;;21.80;42.00;;;;;;5054192;28;20478;-69
2022/09/02 01:06:24;;;;;;;3.00;1.53;;;21.90;42.20;;;;;;5054217;28;20453;-70
2022/09/02 01:08:57;;;;;;;1.53;1.40;;;21.90;42.20;;;;;;5054114;28;20472;-70
2022/09/02 01:11:31;;;;;;;2.20;1.50;;;21.80;42.60;;;;;;5054300;28;20529;-69
2022/09/02 01:13:58;;;;;;;2.67;1.43;;;21.80;42.30;;;;;;5053979;28;20485;-70
2022/09/02 01:16:28;;;;;;;3.03;1.30;;;21.80;42.50;;;;;;5053900;28;20496;-70
2022/09/02 01:18:59;;;;;;;2.20;1.40;;;21.70;42.50;;;;;;5054099;28;20430;-69
2022/09/02 01:21:27;;;;;;;3.00;1.40;;;21.80;42.50;;;;;;5054109;28;20445;-69
2022/09/02 01:23:55;;;;;;;3.23;1.20;;;21.80;42.50;;;;;;5053876;28;20466;-69
2022/09/02 01:26:22;;;;;;;2.07;1.20;;;21.70;42.50;;;;;;5053991;28;20446;-70
2022/09/02 01:28:49;;;;;;;1.80;1.33;;;21.80;42.40;;;;;;5053810;28;20445;-70
2022/09/02 01:31:16;;;;;;;1.47;1.37;;;21.80;42.50;;;;;;5053718;28;20464;-70
2022/09/02 01:33:43;;;;;;;2.60;1.20;;;21.70;42.20;;;;;;5053419;28;20478;-70
2022/09/02 01:36:09;;;;;;;1.50;1.40;;;21.80;42.30;;;;;;5053885;28;20442;-70
2022/09/02 01:38:37;;;;;;;3.80;1.20;;;21.70;42.30;;;;;;5053484;28;20545;-70
2022/09/02 01:41:05;;;;;;;2.00;1.30;;;21.70;42.40;;;;;;5053784;28;20805;-70
2022/09/02 01:43:32;;;;;;;3.00;1.20;;;21.70;42.60;;;;;;5053701;28;20470;-70
2022/09/02 01:45:59;;;;;;;2.80;1.40;;;21.70;42.60;;;;;;5053765;28;20445;-69
2022/09/02 01:48:26;;;;;;;3.30;1.50;;;21.70;42.70;;;;;;5053653;28;20485;-70
2022/09/02 01:50:56;;;;;;;2.80;1.73;;;21.70;42.70;;;;;;5053586;28;20480;-70
2022/09/02 01:53:23;;;;;;;5.53;1.50;;;21.60;42.80;;;;;;5053587;28;20462;-69
2022/09/02 01:55:50;;;;;;;4.53;1.70;;;21.70;42.70;;;;;;5053271;28;21005;-69
2022/09/02 01:58:19;;;;;;;2.70;1.73;;;21.70;42.50;;;;;;5053340;28;20485;-69
2022/09/02 02:00:46;;;;;;;2.60;1.87;;;21.70;42.60;;;;;;5053813;28;20429;-70
2022/09/02 02:03:13;;;;;;;3.27;1.80;;;21.70;42.50;;;;;;5053314;28;20474;-69
2022/09/02 02:05:40;;;;;;;1.50;1.30;;;21.70;42.70;;;;;;5053311;28;20521;-69
2022/09/02 02:08:07;;;;;;;3.37;1.53;;;21.60;42.70;;;;;;5053633;28;20450;-70
2022/09/02 02:10:34;;;;;;;2.60;1.80;;;21.60;42.90;;;;;;5054239;28;20853;-69
2022/09/02 02:13:01;;;;;;;2.73;1.67;;;21.60;42.90;;;;;;5058161;28;20465;-70
2022/09/02 02:15:30;;;;;;;1.43;1.13;;;21.60;43.00;;;;;;5057502;28;20448;-70
2022/09/02 02:17:56;;;;;;;2.00;1.53;;;21.60;43.00;;;;;;5057297;28;20480;-69
2022/09/02 02:20:25;;;;;;;2.60;1.70;;;21.60;43.00;;;;;;5057595;28;20437;-69
2022/09/02 02:22:52;;;;;;;5.63;1.90;;;21.60;43.10;;;;;;5057271;28;20476;-69
2022/09/02 02:25:19;;;;;;;1.47;1.30;;;21.60;43.00;;;;;;5057281;28;20449;-69
2022/09/02 02:27:46;;;;;;;2.03;1.60;;;21.50;43.00;;;;;;5057313;28;20452;-70
2022/09/02 02:30:15;;;;;;;2.60;1.67;;;21.50;42.80;;;;;;5057277;28;20478;-70
2022/09/02 02:32:45;;;;;;;2.40;1.73;;;21.50;43.00;;;;;;5057055;28;20914;-70
2022/09/02 02:35:13;;;;;;;3.87;2.10;;;21.50;43.00;;;;;;5056781;28;20937;-70
2022/09/02 02:37:40;;;;;;;3.20;1.73;;;21.50;43.00;;;;;;5056722;28;20466;-70
2022/09/02 02:40:09;;;;;;;2.00;1.53;;;21.50;43.00;;;;;;5057020;28;20445;-70
2022/09/02 02:42:36;;;;;;;3.07;1.43;;;21.40;43.20;;;;;;5056722;28;20523;-69
2022/09/02 02:45:08;;;;;;;2.40;1.90;;;21.50;43.30;;;;;;5057032;28;20449;-69
2022/09/02 02:47:37;;;;;;;3.37;1.90;;;21.40;43.10;;;;;;5056910;28;20470;-69
2022/09/02 02:50:06;;;;;;;2.93;1.53;;;21.40;43.30;;;;;;5056704;28;20445;-69
2022/09/02 02:52:33;;;;;;;2.80;1.70;;;21.40;43.20;;;;;;5056634;28;20469;-69
2022/09/02 02:55:00;;;;;;;3.10;1.97;;;21.30;43.30;;;;;;5056646;28;20445;-70
2022/09/02 02:57:27;;;;;;;2.10;1.67;;;21.30;43.20;;;;;;5056665;28;20438;-70
2022/09/02 02:59:54;;;;;;;4.53;2.60;;;21.30;43.30;;;;;;5056439;28;20493;-70
2022/09/02 03:02:20;;;;;;;1.87;1.77;;;21.30;43.50;;;;;;5056494;28;20462;-69
2022/09/02 03:04:49;;;;;;;3.00;2.20;;;21.30;43.60;;;;;;5056315;28;20449;-69
2022/09/02 03:07:17;;;;;;;3.90;1.77;;;21.20;43.40;;;;;;5056171;28;20805;-69
2022/09/02 03:09:44;;;;;;;4.57;2.10;;;21.30;43.60;;;;;;5056665;28;20446;-69
2022/09/02 03:12:11;;;;;;;5.27;2.10;;;21.20;43.60;;;;;;5056632;28;20828;-70
2022/09/02 03:14:38;;;;;;;2.90;1.87;;;21.20;43.60;;;;;;5057122;28;20462;-70
2022/09/02 03:17:05;;;;;;;3.40;2.13;;;21.20;43.80;;;;;;5056151;28;20831;-70
2022/09/02 03:19:31;;;;;;;3.97;2.13;;;21.10;43.80;;;;;;5056337;28;20571;-69
2022/09/02 03:21:58;;;;;;;4.07;2.33;;;21.10;43.90;;;;;;5055893;28;20450;-69
2022/09/02 03:24:26;;;;;;;3.03;2.00;;;21.10;44.00;;;;;;5055858;28;20458;-70
2022/09/02 03:26:53;;;;;;;3.10;2.10;;;21.10;44.10;;;;;;5056636;28;20951;-70
2022/09/02 03:29:20;;;;;;;3.23;2.30;;;21.00;44.10;;;;;;5056221;28;20450;-70
2022/09/02 03:31:47;;;;;;;6.87;2.10;;;21.00;44.00;;;;;;5055925;28;20446;-70
2022/09/02 03:34:14;;;;;;;4.13;1.87;;;21.00;44.00;;;;;;5056004;28;20449;-69
2022/09/02 03:36:42;;;;;;;2.87;2.20;;;21.00;43.90;;;;;;5055850;28;20464;-70
2022/09/02 03:39:11;;;;;;;7.40;2.93;;;21.00;43.90;;;;;;5056055;28;20430;-70
2022/09/02 03:41:40;;;;;;;2.97;2.43;;;20.90;44.00;;;;;;5055644;28;20481;-69
2022/09/02 03:44:08;;;;;;;3.73;2.60;;;20.90;43.90;;;;;;5055765;28;20458;-70
2022/09/02 03:46:35;;;;;;;3.63;1.80;;;20.90;44.00;;;;;;5055661;28;20453;-70
2022/09/02 03:49:02;;;;;;;4.93;2.60;;;20.90;44.00;;;;;;5055901;28;20441;-69
2022/09/02 03:51:30;;;;;;;4.40;2.10;;;20.90;44.00;;;;;;5055335;28;20452;-69
2022/09/02 03:53:57;;;;;;;3.87;2.53;;;20.90;44.00;;;;;;5055678;28;20461;-70
2022/09/02 03:56:24;;;;;;;3.07;2.00;;;20.90;44.10;;;;;;5055908;28;20456;-70
2022/09/02 03:58:53;;;;;;;5.80;2.40;;;20.90;44.30;;;;;;5055282;28;20944;-70
2022/09/02 04:01:23;;;;;;;6.37;2.60;;;20.80;44.30;;;;;;5055416;28;20485;-69
2022/09/02 04:03:50;;;;;;;2.53;2.10;;;20.80;44.10;;;;;;5055122;28;20468;-70
2022/09/02 04:06:19;;;;;;;3.53;2.30;;;20.90;44.30;;;;;;5055325;28;20449;-70
2022/09/02 04:08:47;;;;;;;5.30;2.57;;;20.80;44.40;;;;;;5054970;28;20454;-70
2022/09/02 04:11:16;;;;;;;4.90;2.13;;;20.80;44.40;;;;;;5055073;28;20442;-70
2022/09/02 04:13:43;;;;;;;2.40;2.10;;;20.80;44.40;;;;;;5055422;28;20473;-70
2022/09/02 04:16:14;;;;;;;3.87;1.80;;;20.80;44.40;;;;;;5055828;28;20819;-70
2022/09/02 04:18:41;;;;;;;2.97;1.70;;;20.80;44.50;;;;;;5055943;28;20453;-68
2022/09/02 04:21:09;;;;;;;2.47;2.17;;;20.80;44.50;;;;;;5055578;28;20485;-69
2022/09/02 04:23:35;;;;;;;3.17;2.70;;;20.70;44.50;;;;;;5055602;28;20474;-69
2022/09/02 04:26:04;;;;;;;5.10;2.30;;;20.70;44.50;;;;;;5055289;28;20452;-67
2022/09/02 04:28:31;;;;;;;3.60;2.20;;;20.80;44.80;;;;;;5054882;28;20445;-66
2022/09/02 04:30:58;;;;;;;7.13;2.30;;;20.80;44.80;;;;;;5054899;28;20441;-66
2022/09/02 04:33:26;;;;;;;4.57;1.93;;;20.70;44.80;;;;;;5054539;28;20457;-66
2022/09/02 04:35:53;;;;;;;5.60;2.20;;;20.70;44.90;;;;;;5054480;28;20540;-65
2022/09/02 04:38:20;;;;;;;2.80;2.00;;;20.70;44.90;;;;;;5054167;28;20472;-65
2022/09/02 04:40:47;;;;;;;4.13;1.90;;;20.70;45.00;;;;;;5054357;28;20477;-65
2022/09/02 04:43:15;;;;;;;5.67;2.60;;;20.70;44.90;;;;;;5054377;28;20469;-66
2022/09/02 04:45:43;;;;;;;5.77;2.43;;;20.70;45.00;;;;;;5054505;28;20529;-66
2022/09/02 04:48:10;;;;;;;3.90;2.00;;;20.70;45.00;;;;;;5054082;28;20430;-67
2022/09/02 04:50:40;;;;;;;3.23;1.60;;;20.70;45.00;;;;;;5054299;28;20449;-66
2022/09/02 04:53:07;;;;;;;8.73;2.13;;;20.70;44.90;;;;;;5054198;28;20477;-65
2022/09/02 04:55:35;;;;;;;1.60;1.50;;;20.70;45.00;;;;;;5054268;28;20461;-66
2022/09/02 04:58:01;;;;;;;2.33;1.77;;;20.70;45.00;;;;;;5053722;28;20820;-66
2022/09/02 05:00:28;;;;;;;3.13;1.40;;;20.70;44.90;;;;;;5054111;28;20465;-65
2022/09/02 05:02:55;;;;;;;2.93;1.57;;;20.70;44.80;;;;;;5054096;28;20466;-66
2022/09/02 05:05:22;;;;;;;1.90;1.27;;;20.70;44.80;;;;;;5054182;28;20430;-66
2022/09/02 05:07:50;;;;;;;2.17;1.60;;;20.70;44.90;;;;;;5053871;28;20967;-66
2022/09/02 05:10:17;;;;;;;3.43;1.50;;;20.70;44.80;;;;;;5054076;28;20452;-66
2022/09/02 05:12:44;;;;;;;7.03;2.03;;;20.60;44.80;;;;;;5053744;28;20477;-65
2022/09/02 05:15:11;;;;;;;4.40;2.20;;;20.60;45.00;;;;;;5053809;28;20447;-66
2022/09/02 05:17:38;;;;;;;2.53;1.93;;;20.60;45.10;;;;;;5053913;28;20453;-66
2022/09/02 05:20:07;;;;;;;2.37;1.53;;;20.60;45.00;;;;;;5053709;28;20453;-66
2022/09/02 05:22:34;;;;;;;2.17;1.70;;;20.60;45.10;;;;;;5053620;28;20544;-66
2022/09/02 05:25:02;;;;;;;3.57;1.53;;;20.60;45.10;;;;;;5053690;28;20449;-66
2022/09/02 05:27:29;;;;;;;4.60;2.10;;;20.70;45.40;;;;;;5053931;28;20469;-67
2022/09/02 05:29:58;;;;;;;2.90;1.90;;;20.70;45.30;;;;;;5053687;28;20450;-66
2022/09/02 05:32:25;;;;;;;3.73;1.60;;;20.70;45.20;;;;;;5053798;28;20469;-66
2022/09/02 05:34:53;;;;;;;2.60;1.57;;;20.70;45.10;;;;;;5053572;28;20441;-65
2022/09/02 05:37:20;;;;;;;3.20;1.70;;;20.70;45.10;;;;;;5053292;28;20507;-65
2022/09/02 05:39:48;;;;;;;4.53;1.90;;;20.70;44.90;;;;;;5053506;28;20442;-66
2022/09/02 05:42:18;;;;;;;3.97;1.80;;;20.70;44.90;;;;;;5053418;28;20492;-65
2022/09/02 05:44:45;;;;;;;2.43;1.60;;;20.70;44.70;;;;;;5053538;28;20492;-65
2022/09/02 05:47:12;;;;;;;4.70;1.80;;;20.70;44.70;;;;;;5053173;28;20442;-65
2022/09/02 05:49:39;;;;;;;2.77;1.83;;;20.80;44.80;;;;;;5053520;28;20486;-65
2022/09/02 05:52:08;;;;;;;4.20;1.90;;;20.80;44.90;;;;;;5053355;28;20475;-65
2022/09/02 05:54:37;;;;;;;4.10;1.50;;;20.80;44.90;;;;;;5053333;28;20449;-66
2022/09/02 05:57:08;;;;;;;4.07;1.80;;;20.90;45.00;;;;;;5053299;28;20446;-66
2022/09/02 05:59:38;;;;;;;11.47;2.00;;;20.90;44.90;;;;;;5052984;28;20468;-66
2022/09/02 06:02:06;;;;;;;4.33;1.70;;;21.00;45.30;;;;;;5053338;28;20481;-65
2022/09/02 06:04:36;;;;;;;6.83;1.70;;;21.10;44.70;;;;;;5053296;28;20450;-64
2022/09/02 06:07:03;;;;;;;7.03;1.77;;;21.10;44.50;;;;;;5053275;28;20449;-66
2022/09/02 06:09:29;;;;;;;2.53;1.50;;;21.20;44.40;;;;;;5053102;28;20956;-66
2022/09/02 06:11:57;;;;;;;2.33;1.37;;;21.20;44.30;;;;;;5053145;28;20442;-65
2022/09/02 06:14:25;;;;;;;3.57;2.13;;;21.20;44.10;;;;;;5053247;28;20449;-65
2022/09/02 06:16:55;;;;;;;3.00;1.80;;;21.30;44.10;;;;;;5053113;28;20453;-66
2022/09/02 06:19:24;;;;;;;11.43;2.00;;;21.30;44.20;;;;;;5053164;28;20442;-65
2022/09/02 06:21:52;;;;;;;1.77;1.50;;;21.40;44.00;;;;;;5053040;28;20489;-65
2022/09/02 06:24:19;;;;;;;3.70;2.30;;;21.40;43.80;;;;;;5053280;28;20475;-65
2022/09/02 06:26:46;;;;;;;3.03;1.83;;;21.40;43.80;;;;;;5053241;28;20461;-65
2022/09/02 06:29:13;;;;;;;1.97;1.70;;;21.40;43.80;;;;;;5053273;28;20830;-65
2022/09/02 06:31:42;;;;;;;2.10;1.90;;;21.40;43.90;;;;;;5053218;28;20448;-65
2022/09/02 06:34:12;;;;;;;2.33;1.70;;;21.40;43.80;;;;;;5053206;28;20446;-64
2022/09/02 06:36:40;;;;;;;1.83;1.40;;;21.40;43.80;;;;;;5052798;28;20485;-64
2022/09/02 06:39:07;;;;;;;3.50;1.40;;;21.40;43.90;;;;;;5053049;28;20452;-64
2022/09/02 06:41:34;;;;;;;1.87;1.40;;;21.40;43.80;;;;;;5052976;28;20476;-65
2022/09/02 06:44:04;;;;;;;2.70;1.20;;;21.50;44.00;;;;;;5053032;28;20469;-65
2022/09/02 06:46:33;;;;;;;3.47;1.57;;;21.50;44.10;;;;;;5053086;28;20460;-64
2022/09/02 06:48:59;;;;;;;3.67;1.50;;;21.60;44.00;;;;;;5053013;28;20454;-64
2022/09/02 06:51:31;;;;;;;7.70;2.23;;;21.70;43.90;;;;;;5053697;28;20426;-65
2022/09/02 06:53:59;;;;;;;2.93;1.40;;;21.80;44.00;;;;;;5053456;28;20480;-65
2022/09/02 06:56:26;;;;;;;2.50;1.33;;;21.80;43.80;;;;;;5053425;28;20430;-65
2022/09/02 06:58:53;;;;;;;4.73;1.30;;;21.90;44.30;;;;;;5055210;28;20456;-65
2022/09/02 07:01:22;;;;;;;1.73;1.53;;;22.00;43.70;;;;;;5056444;28;20489;-66
2022/09/02 07:06:40;;;;;;;4.47;1.47;;;22.10;43.40;;;;;;5056431;28;20496;-65
2022/09/02 07:09:09;;;;;;;3.17;1.40;;;22.20;43.30;;;;;;5056682;28;20517;-64
2022/09/02 07:11:37;;;;;;;2.17;1.63;;;22.30;43.40;;;;;;5056309;28;20453;-64
2022/09/02 07:14:05;;;;;;;2.90;1.70;;;22.40;43.30;;;;;;5056255;28;20480;-64
2022/09/02 07:16:35;;;;;;;3.63;1.87;;;22.40;43.00;;;;;;5056313;28;20450;-65
2022/09/02 07:19:02;;;;;;;4.70;1.90;;;22.50;43.00;;;;;;5056574;28;20447;-65
2022/09/02 07:21:30;;;;;;;3.47;1.73;;;22.70;43.20;;;;;;5056229;28;20496;-65
2022/09/02 07:24:00;;;;;;;3.50;2.13;;;22.80;42.80;;;;;;5055776;28;20844;-65
2022/09/02 07:26:28;;;;;;;5.93;1.80;;;23.00;42.50;;;;;;5056183;28;20555;-65
2022/09/02 07:28:56;;;;;;;6.70;1.87;;;23.20;42.30;;;;;;5056333;28;20450;-65
2022/09/02 07:31:23;;;;;;;3.77;2.10;;;23.40;41.90;;;;;;5056271;28;20462;-64
2022/09/02 07:33:50;;;;;;;2.83;1.73;;;23.50;41.60;;;;;;5056796;28;20845;-65
2022/09/02 07:36:20;;;;;;;2.50;2.17;;;23.60;41.30;;;;;;5056503;28;20437;-65
2022/09/02 07:38:47;;;;;;;5.23;1.73;;;23.80;41.10;;;;;;5055609;28;20466;-66
2022/09/02 07:41:15;;;;;;;2.80;1.80;;;23.90;40.90;;;;;;5055658;28;20504;-64
2022/09/02 07:43:42;;;;;;;2.03;1.77;;;24.00;40.70;;;;;;5055702;28;21067;-65
2022/09/02 07:46:09;;;;;;;7.30;2.23;;;24.10;40.50;;;;;;5055873;28;20968;-65
2022/09/02 07:48:36;;;;;;;2.07;1.70;;;24.10;40.30;;;;;;5055824;28;20436;-65
2022/09/02 07:51:04;;;;;;;5.20;1.80;;;24.20;40.30;;;;;;5055886;28;20445;-65
2022/09/02 07:53:32;;;;;;;3.73;2.40;;;24.30;40.00;;;;;;5055827;28;20479;-64
2022/09/02 07:55:59;;;;;;;3.97;2.03;;;24.40;39.90;;;;;;5056117;28;20442;-65
2022/09/02 07:58:27;;;;;;;4.67;1.90;;;24.40;39.50;;;;;;5055237;28;20980;-65
2022/09/02 08:00:55;;;;;;;3.90;2.27;;;24.40;39.50;;;;;;5055729;28;20859;-64
2022/09/02 08:03:23;;;;;;;7.47;1.73;;;24.40;39.60;;;;;;5055759;28;20883;-65
2022/09/02 08:05:50;;;;;;;1.90;1.70;;;24.50;40.00;;;;;;5055235;28;20456;-65
2022/09/02 08:08:19;;;;;;;6.40;2.00;;;24.50;39.50;;;;;;5054821;28;20909;-64
2022/09/02 08:10:46;;;;;;;2.43;2.00;;;24.70;39.30;;;;;;5055193;28;20460;-64
2022/09/02 08:13:14;;;;;;;10.53;2.33;;;24.80;38.90;;;;;;5055071;28;20884;-64
2022/09/02 08:15:43;;;;;;;5.07;1.80;;;24.90;39.00;;;;;;5055277;28;20470;-65
2022/09/02 08:18:10;;;;;;;4.83;2.00;;;25.10;39.20;;;;;;5055155;28;20460;-64
2022/09/02 08:20:37;;;;;;;1.87;1.50;;;25.30;38.70;;;;;;5055505;28;20452;-64
2022/09/02 08:23:05;;;;;;;1.60;1.50;;;25.40;38.30;;;;;;5054981;28;20500;-65
2022/09/02 08:25:32;;;;;;;3.93;1.47;;;25.60;37.90;;;;;;5054777;28;20458;-65
2022/09/02 08:27:58;;;;;;;2.10;1.57;;;25.80;37.30;;;;;;5055027;28;20454;-65
2022/09/02 08:30:26;;;;;;;1.90;1.70;;;25.90;37.00;;;;;;5054694;28;20897;-65
2022/09/02 08:32:54;;;;;;;3.20;1.83;;;26.10;37.10;;;;;;5054537;28;20474;-65
2022/09/02 08:35:21;;;;;;;3.17;1.63;;;26.30;37.00;;;;;;5054951;28;20449;-65
2022/09/02 08:37:48;;;;;;;2.70;1.67;;;26.50;36.60;;;;;;5054680;28;20457;-65
2022/09/02 08:40:19;;;;;;;3.07;1.83;;;26.70;36.10;;;;;;5054923;28;20460;-64
2022/09/02 08:42:48;;;;;;;5.87;1.90;;;26.90;36.00;;;;;;5054798;28;20508;-64
2022/09/02 08:45:21;;;;;;;3.43;2.43;;;27.20;35.70;;;;;;5054274;28;20446;-65
2022/09/02 08:48:03;;;;;;;3.60;2.20;;;27.30;34.90;;;;;;5055485;28;20438;-66
2022/09/02 08:50:32;;;;;;;3.00;1.80;;;27.30;34.10;;;;;;5054752;28;20438;-65
2022/09/02 08:53:04;;;;;;;4.30;2.23;;;27.50;34.70;;;;;;5054794;28;20462;-65
2022/09/02 08:55:36;;;;;;;9.20;2.10;;;27.60;34.30;;;;;;5054959;28;20474;-65
2022/09/02 08:58:03;;;;;;;2.03;1.53;;;27.70;33.90;;;;;;5054587;28;20430;-66
2022/09/02 09:00:37;;;;;;;4.97;1.73;;;27.90;34.00;;;;;;5054592;28;20454;-65
2022/09/02 09:03:15;;;;;;;3.00;1.70;;;28.10;33.70;;;;;;5054239;28;20489;-64
2022/09/02 09:05:50;;;;;;;2.17;1.90;;;28.20;32.20;;;;;;5054303;28;20438;-66
2022/09/02 09:08:27;;;;;;;2.20;1.97;;;28.30;32.20;;;;;;5054154;28;20507;-65
2022/09/02 09:11:01;;;;;;;1.70;1.60;;;28.40;31.80;;;;;;5053015;28;20434;-64
2022/09/02 09:13:46;;;;;;;4.10;2.07;;;28.40;31.70;;;;;;5054182;28;21030;-66
2022/09/02 09:16:25;;;;;;;3.63;1.90;;;28.20;31.60;;;;;;5054218;28;20426;-64
2022/09/02 09:18:59;;;;;;;8.10;2.10;;;27.90;32.30;;;;;;5054007;28;20438;-64
2022/09/02 09:21:30;;;;;;;2.10;1.83;;;27.80;32.60;;;;;;5053238;28;20569;-64
2022/09/02 09:24:00;;;;;;;2.90;1.80;;;27.80;32.40;;;;;;5053910;28;20501;-65
2022/09/02 09:26:29;;;;;;;2.20;1.97;;;27.80;33.50;;;;;;5053758;28;20434;-65
2022/09/02 09:28:58;;;;;;;5.00;1.80;;;27.80;32.40;;;;;;5054315;28;20438;-64
2022/09/02 09:31:30;;;;;;;3.63;1.90;;;28.00;32.80;;;;;;5053814;28;20489;-65
2022/09/02 09:33:58;;;;;;;3.37;1.40;;;28.20;32.20;;;;;;5053795;28;20473;-66
2022/09/02 09:36:47;;;;;;;2.37;1.70;;;28.50;32.20;;;;;;5053591;28;20531;-64
2022/09/02 09:39:19;;;;;;;1.80;1.40;;;28.80;31.50;;;;;;5053593;28;20940;-65
2022/09/02 09:41:48;;;;;;;2.97;1.80;;;29.00;30.60;;;;;;5053649;28;20612;-66
2022/09/02 09:44:37;;;;;;;3.13;1.37;;;29.10;30.60;;;;;;5054029;28;20450;-65
2022/09/02 09:47:07;;;;;;;4.10;1.77;;;29.40;30.90;;;;;;5053562;28;20963;-65
2022/09/02 09:49:34;;;;;;;7.53;2.33;;;29.70;31.00;;;;;;5053877;28;20442;-65
2022/09/02 09:52:03;;;;;;;2.13;1.90;;;29.90;30.70;;;;;;5053880;28;20450;-65
2022/09/02 09:54:30;;;;;;;3.57;2.20;;;30.20;29.80;;;;;;5054676;28;20457;-66
2022/09/02 09:57:12;;;;;;;4.23;2.03;;;30.50;29.70;;;;;;5054152;28;20513;-65
2022/09/02 09:59:42;;;;;;;3.00;1.50;;;30.80;29.60;;;;;;5054346;28;20438;-65
2022/09/02 10:02:19;;;;;;;2.37;2.00;;;31.20;29.00;;;;;;5054165;28;20493;-65
2022/09/02 10:04:46;;;;;;;1.67;1.57;;;31.60;27.60;;;;;;5054005;28;20815;-65
2022/09/02 10:07:14;;;;;;;1.90;1.60;;;31.60;27.10;;;;;;5053670;28;20440;-65
2022/09/02 10:09:42;;;;;;;1.70;1.60;;;31.80;26.90;;;;;;5053608;28;20952;-65
2022/09/02 10:12:12;;;;;;;3.17;1.90;;;32.00;26.00;;;;;;5053661;28;20461;-65
2022/09/02 10:14:42;;;;;;;2.60;1.50;;;32.00;26.30;;;;;;5054077;28;20434;-66
2022/09/02 10:17:32;;;;;;;2.60;1.80;;;32.20;27.00;;;;;;5054070;28;20449;-65
2022/09/02 10:20:07;;;;;;;3.73;1.60;;;32.50;26.60;;;;;;5053653;28;20797;-65
2022/09/02 10:23:05;;;;;;;2.80;1.73;;;32.90;25.90;;;;;;5053295;28;20480;-66
2022/09/02 10:25:44;;;;;;;3.77;1.67;;;33.50;26.00;;;;;;5053532;28;20436;-66
2022/09/02 10:28:25;;;;;;;4.73;1.80;;;34.10;23.80;;;;;;5054522;28;20433;-66
2022/09/02 10:31:00;;;;;;;2.70;1.73;;;34.40;23.90;;;;;;5053487;28;20446;-65
2022/09/02 10:33:38;;;;;;;7.47;1.80;;;34.70;23.60;;;;;;5056710;28;20464;-65
2022/09/02 10:36:11;;;;;;;4.70;2.00;;;35.20;23.10;;;;;;5057368;28;20439;-65
2022/09/02 10:38:42;;;;;;;2.40;1.70;;;35.60;22.50;;;;;;5056945;28;20452;-66
2022/09/02 10:41:32;;;;;;;4.60;2.00;;;36.20;20.90;;;;;;5057209;28;20437;-66
2022/09/02 10:44:29;;;;;;;3.77;1.40;;;36.50;20.50;;;;;;5057403;28;20476;-67
2022/09/02 10:47:00;;;;;;;2.90;2.07;;;36.70;19.80;;;;;;5052601;28;20496;-67
2022/09/02 10:50:00;;;;;;;2.50;1.60;;;36.60;19.20;;;;;;5057028;28;20831;-65
2022/09/02 10:52:49;;;;;;;12.63;2.90;;;36.50;19.70;;;;;;5049515;28;20472;-66
2022/09/02 10:55:25;;;;;;;6.03;2.00;;;36.80;20.40;;;;;;5057033;28;20494;-67
2022/09/02 10:57:59;;;;;;;3.50;2.07;;;37.40;19.80;;;;;;5057188;28;20824;-66
2022/09/02 11:00:28;;;;;;;2.00;1.60;;;37.80;17.70;;;;;;5056515;28;20289;-66
2022/09/02 11:03:05;;;;;;;5.00;2.13;;;37.70;18.30;;;;;;5056665;28;20744;-67
2022/09/02 11:05:41;;;;;;;6.30;2.47;;;37.80;18.70;;;;;;5056645;28;20569;-67
2022/09/02 11:08:12;;;;;;;2.70;1.60;;;38.10;18.30;;;;;;5056927;28;20192;-67
2022/09/02 11:10:45;;;;;;;18.47;3.60;;;38.10;17.50;;;;;;5056232;28;20650;-66
2022/09/02 11:13:23;;;;;;;17.57;3.03;;;38.20;18.20;;;;;;5056588;28;20218;-65
2022/09/02 11:15:56;;;;;;;2.63;1.55;;;38.60;18.60;;;;;;5056601;28;20278;-66
2022/09/02 11:18:29;;;;;;;14.05;3.10;;;38.60;18.30;;;;;;5056592;28;20191;-66
2022/09/02 11:21:05;;;;;;;1.93;1.70;;;38.20;18.40;;;;;;5056403;28;20187;-66
2022/09/02 11:23:38;;;;;;;5.03;2.10;;;38.20;17.90;;;;;;5056287;28;20279;-66
2022/09/02 11:26:15;;;;;;;16.35;3.42;;;38.40;18.10;;;;;;5056682;28;20187;-66
2022/09/02 11:28:49;;;;;;;10.65;2.42;;;38.80;17.70;;;;;;5056500;28;20187;-67
2022/09/02 11:31:21;;;;;;;10.13;2.83;;;39.20;17.90;;;;;;5056376;28;20608;-67
2022/09/02 11:33:55;;;;;;;4.53;1.33;;;39.70;17.20;;;;;;5055923;28;20752;-67
2022/09/02 11:36:22;;;;;;;5.93;1.70;;;40.20;17.00;;;;;;5056159;28;20651;-66
2022/09/02 11:38:53;;;;;;;3.95;1.60;;;40.60;17.00;;;;;;5055896;28;20210;-67
2022/09/02 11:41:49;;;;;;;3.65;1.52;;;41.30;16.60;;;;;;5055799;28;20604;-67
2022/09/02 11:44:42;;;;;;;3.47;1.17;;;41.70;14.50;;;;;;5055120;28;20209;-67
2022/09/02 11:47:50;;;;;;;2.85;1.60;;;41.90;14.50;;;;;;5055896;28;20193;-67
2022/09/02 11:50:31;;;;;;;4.05;1.55;;;41.40;14.60;;;;;;5030640;28;20214;-67
2022/09/02 11:53:12;;;;;;;4.75;1.98;;;40.10;15.60;;;;;;5056485;28;20248;-66
2022/09/02 11:55:43;;;;;;;6.18;1.50;;;39.80;16.70;;;;;;5056299;28;20233;-68
2022/09/02 11:58:11;;;;;;;4.20;1.52;;;40.20;16.10;;;;;;5055985;28;20190;-67
2022/09/02 12:01:05;;;;;;;9.65;1.38;;;40.90;15.70;;;;;;5055830;28;20217;-66
2022/09/02 12:03:35;;;;;;;2.88;1.63;;;41.50;13.80;;;;;;5055886;28;20226;-66
2022/09/02 12:06:08;;;;;;;1.90;1.17;;;41.80;13.70;;;;;;5056542;28;20189;-66
2022/09/02 12:08:58;;;;;;;1.48;1.38;;;41.90;13.20;;;;;;5055877;28;20202;-67
2022/09/02 12:11:44;;;;;;;5.10;1.40;;;41.90;13.40;;;;;;5055644;28;20195;-66
2022/09/02 12:15:06;;;;;;;4.95;1.70;;;42.00;14.10;;;;;;5055477;28;20194;-66
2022/09/02 12:17:39;;;;;;;3.42;1.42;;;41.90;13.10;;;;;;5055589;28;20244;-66
2022/09/02 12:20:08;;;;;;;1.90;1.40;;;41.70;13.80;;;;;;5055874;28;20191;-66
2022/09/02 12:22:38;;;;;;;3.63;1.33;;;41.70;13.40;;;;;;5055546;28;20230;-67
2022/09/02 12:25:21;;;;;;;1.60;1.13;;;41.90;13.80;;;;;;5056176;28;20222;-65
2022/09/02 12:27:48;;;;;;;2.33;1.00;;;42.20;13.30;;;;;;5055304;28;20594;-67
2022/09/02 12:30:36;;;;;;;1.40;1.10;;;42.30;12.80;;;;;;5055192;28;20707;-67
2022/09/02 12:33:13;;;;;;;1.10;1.00;;;42.40;13.90;;;;;;5055131;28;20267;-67
2022/09/02 12:35:56;;;;;;;2.92;1.20;;;42.90;13.80;;;;;;5055713;28;20214;-67
2022/09/02 12:38:43;;;;;;;2.03;0.90;;;43.50;14.20;;;;;;5055299;28;20210;-67
2022/09/02 12:41:29;;;;;;;1.70;1.45;;;43.70;12.20;;;;;;5056186;28;20199;-67
2022/09/02 12:44:13;;;;;;;6.50;1.30;;;43.10;12.20;;;;;;5054589;28;20241;-67
2022/09/02 12:46:52;;;;;;;3.78;1.45;;;42.60;13.40;;;;;;5055623;28;20194;-67
2022/09/02 12:49:38;;;;;;;2.50;1.80;;;42.40;14.40;;;;;;5056158;28;20198;-67
2022/09/02 12:52:08;;;;;;;2.35;1.48;;;42.60;12.80;;;;;;5055354;28;20648;-67
2022/09/02 12:54:42;;;;;;;2.92;1.10;;;42.60;12.90;;;;;;5055648;28;20191;-68
2022/09/02 12:57:11;;;;;;;4.30;1.50;;;42.60;13.70;;;;;;5055809;28;20189;-67
2022/09/02 12:59:39;;;;;;;1.23;1.13;;;42.20;13.70;;;;;;5056139;28;20206;-67
2022/09/02 13:02:19;;;;;;;2.28;1.20;;;42.60;13.20;;;;;;5055412;28;20602;-68
2022/09/02 13:04:58;;;;;;;3.65;1.27;;;43.10;12.60;;;;;;5055249;28;20186;-68
2022/09/02 13:07:52;;;;;;;1.83;1.02;;;43.80;12.30;;;;;;5054905;28;20194;-67